sensor_id;sensor_type;location;lat;lon;timestamp;P1;durP1;ratioP1;P2;durP2;ratioP2
22024;SDS011;11176;51.448;6.650;2022-12-18T00:01:18;25.27;;;14.40;;
22024;SDS011;11176;51.448;6.650;2022-12-18T00:03:47;19.23;;;11.65;;
22024;SDS011;11176;51.448;6.650;2022-12-18T00:06:15;14.77;;;10.35;;
22024;SDS011;11176;51.448;6.650;2022-12-18T00:08:44;16.85;;;10.98;;
22024;SDS011;11176;51.448;6.650;2022-12-18T00:11:12;21.70;;;12.95;;
22024;SDS011;11176;51.448;6.650;2022-12-18T00:13:43;25.15;;;14.10;;
22024;SDS011;11176;51.448;6.650;2022-12-18T00:16:11;21.92;;;12.52;;
22024;SDS011;11176;51.448;6.650;2022-12-18T00:18:39;24.15;;;14.93;;
22024;SDS011;11176;51.448;6.650;2022-12-18T00:21:07;27.80;;;17.05;;
22024;SDS011;11176;51.448;6.650;2022-12-18T00:23:36;22.80;;;13.82;;
22024;SDS011;11176;51.448;6.650;2022-12-18T00:26:06;25.65;;;16.60;;
22024;SDS011;11176;51.448;6.650;2022-12-18T00:28:36;21.67;;;14.27;;
22024;SDS011;11176;51.448;6.650;2022-12-18T00:31:03;32.33;;;18.17;;
22024;SDS011;11176;51.448;6.650;2022-12-18T00:33:32;27.85;;;15.68;;
22024;SDS011;11176;51.448;6.650;2022-12-18T00:36:06;21.40;;;12.70;;
22024;SDS011;11176;51.448;6.650;2022-12-18T00:38:35;16.42;;;10.00;;
22024;SDS011;11176;51.448;6.650;2022-12-18T00:41:03;20.58;;;11.85;;
22024;SDS011;11176;51.448;6.650;2022-12-18T00:43:29;17.05;;;10.30;;
22024;SDS011;11176;51.448;6.650;2022-12-18T00:45:56;18.02;;;10.60;;
22024;SDS011;11176;51.448;6.650;2022-12-18T00:48:22;17.17;;;10.82;;
22024;SDS011;11176;51.448;6.650;2022-12-18T00:50:49;19.95;;;12.20;;
22024;SDS011;11176;51.448;6.650;2022-12-18T00:53:16;18.95;;;11.63;;
22024;SDS011;11176;51.448;6.650;2022-12-18T00:55:43;22.38;;;11.70;;
22024;SDS011;11176;51.448;6.650;2022-12-18T00:58:12;21.70;;;11.98;;
22024;SDS011;11176;51.448;6.650;2022-12-18T01:00:39;23.27;;;11.73;;
22024;SDS011;11176;51.448;6.650;2022-12-18T01:03:10;21.23;;;11.82;;
22024;SDS011;11176;51.448;6.650;2022-12-18T01:05:40;19.58;;;11.43;;
22024;SDS011;11176;51.448;6.650;2022-12-18T01:08:07;20.67;;;11.63;;
22024;SDS011;11176;51.448;6.650;2022-12-18T01:10:34;19.58;;;11.30;;
22024;SDS011;11176;51.448;6.650;2022-12-18T01:13:00;22.10;;;12.43;;
22024;SDS011;11176;51.448;6.650;2022-12-18T01:15:26;19.73;;;11.80;;
22024;SDS011;11176;51.448;6.650;2022-12-18T01:17:53;22.30;;;11.55;;
22024;SDS011;11176;51.448;6.650;2022-12-18T01:20:20;24.67;;;13.70;;
22024;SDS011;11176;51.448;6.650;2022-12-18T01:22:47;21.35;;;12.57;;
22024;SDS011;11176;51.448;6.650;2022-12-18T01:25:13;24.30;;;12.43;;
22024;SDS011;11176;51.448;6.650;2022-12-18T01:27:40;22.42;;;12.57;;
22024;SDS011;11176;51.448;6.650;2022-12-18T01:30:06;23.88;;;12.75;;
22024;SDS011;11176;51.448;6.650;2022-12-18T01:32:33;24.27;;;12.77;;
22024;SDS011;11176;51.448;6.650;2022-12-18T01:35:01;22.65;;;12.63;;
22024;SDS011;11176;51.448;6.650;2022-12-18T01:37:27;21.92;;;12.15;;
22024;SDS011;11176;51.448;6.650;2022-12-18T01:39:54;24.88;;;12.60;;
22024;SDS011;11176;51.448;6.650;2022-12-18T01:42:21;21.80;;;12.52;;
22024;SDS011;11176;51.448;6.650;2022-12-18T01:47:43;22.40;;;12.45;;
22024;SDS011;11176;51.448;6.650;2022-12-18T01:50:33;20.77;;;12.05;;
22024;SDS011;11176;51.448;6.650;2022-12-18T01:53:10;24.08;;;12.32;;
22024;SDS011;11176;51.448;6.650;2022-12-18T01:55:44;22.15;;;13.30;;
22024;SDS011;11176;51.448;6.650;2022-12-18T01:58:12;21.25;;;12.18;;
22024;SDS011;11176;51.448;6.650;2022-12-18T02:00:40;20.27;;;12.85;;
22024;SDS011;11176;51.448;6.650;2022-12-18T02:03:06;23.10;;;13.27;;
22024;SDS011;11176;51.448;6.650;2022-12-18T02:05:44;22.23;;;12.68;;
22024;SDS011;11176;51.448;6.650;2022-12-18T02:08:25;20.77;;;12.10;;
22024;SDS011;11176;51.448;6.650;2022-12-18T02:14:00;20.13;;;11.90;;
22024;SDS011;11176;51.448;6.650;2022-12-18T02:28:33;20.40;;;11.90;;
22024;SDS011;11176;51.448;6.650;2022-12-18T02:31:06;22.23;;;12.48;;
22024;SDS011;11176;51.448;6.650;2022-12-18T02:33:37;21.00;;;11.65;;
22024;SDS011;11176;51.448;6.650;2022-12-18T02:36:06;20.88;;;11.98;;
22024;SDS011;11176;51.448;6.650;2022-12-18T02:38:36;19.15;;;11.70;;
22024;SDS011;11176;51.448;6.650;2022-12-18T02:41:10;22.10;;;12.52;;
22024;SDS011;11176;51.448;6.650;2022-12-18T02:43:39;24.90;;;13.40;;
22024;SDS011;11176;51.448;6.650;2022-12-18T02:46:23;22.83;;;12.48;;
22024;SDS011;11176;51.448;6.650;2022-12-18T02:57:12;22.60;;;12.90;;
22024;SDS011;11176;51.448;6.650;2022-12-18T03:02:47;21.38;;;12.43;;
22024;SDS011;11176;51.448;6.650;2022-12-18T03:05:21;19.92;;;12.52;;
22024;SDS011;11176;51.448;6.650;2022-12-18T03:07:56;22.38;;;12.45;;
22024;SDS011;11176;51.448;6.650;2022-12-18T03:10:36;20.05;;;12.23;;
22024;SDS011;11176;51.448;6.650;2022-12-18T03:13:09;20.83;;;12.25;;
22024;SDS011;11176;51.448;6.650;2022-12-18T03:15:45;26.13;;;12.80;;
22024;SDS011;11176;51.448;6.650;2022-12-18T03:18:17;19.80;;;11.60;;
22024;SDS011;11176;51.448;6.650;2022-12-18T03:20:47;18.63;;;11.25;;
22024;SDS011;11176;51.448;6.650;2022-12-18T03:23:21;19.27;;;12.55;;
22024;SDS011;11176;51.448;6.650;2022-12-18T03:26:06;23.27;;;11.82;;
22024;SDS011;11176;51.448;6.650;2022-12-18T03:28:39;23.55;;;12.98;;
22024;SDS011;11176;51.448;6.650;2022-12-18T03:31:11;24.20;;;13.38;;
22024;SDS011;11176;51.448;6.650;2022-12-18T03:33:47;24.08;;;12.27;;
22024;SDS011;11176;51.448;6.650;2022-12-18T03:36:30;31.52;;;14.13;;
22024;SDS011;11176;51.448;6.650;2022-12-18T03:38:57;29.20;;;13.50;;
22024;SDS011;11176;51.448;6.650;2022-12-18T03:41:33;24.17;;;13.35;;
22024;SDS011;11176;51.448;6.650;2022-12-18T03:47:06;25.13;;;13.55;;
22024;SDS011;11176;51.448;6.650;2022-12-18T03:49:40;26.75;;;14.23;;
22024;SDS011;11176;51.448;6.650;2022-12-18T03:52:20;28.15;;;14.35;;
22024;SDS011;11176;51.448;6.650;2022-12-18T03:54:54;26.77;;;13.95;;
22024;SDS011;11176;51.448;6.650;2022-12-18T03:57:26;27.42;;;15.18;;
22024;SDS011;11176;51.448;6.650;2022-12-18T03:59:57;29.63;;;15.60;;
22024;SDS011;11176;51.448;6.650;2022-12-18T04:02:40;30.95;;;15.50;;
22024;SDS011;11176;51.448;6.650;2022-12-18T04:05:20;32.38;;;16.17;;
22024;SDS011;11176;51.448;6.650;2022-12-18T04:07:48;30.63;;;15.93;;
22024;SDS011;11176;51.448;6.650;2022-12-18T04:10:17;29.08;;;15.00;;
22024;SDS011;11176;51.448;6.650;2022-12-18T04:12:44;25.60;;;14.60;;
22024;SDS011;11176;51.448;6.650;2022-12-18T04:15:12;29.35;;;14.05;;
22024;SDS011;11176;51.448;6.650;2022-12-18T04:17:41;24.60;;;14.45;;
22024;SDS011;11176;51.448;6.650;2022-12-18T04:20:16;27.67;;;13.65;;
22024;SDS011;11176;51.448;6.650;2022-12-18T04:22:44;27.42;;;14.43;;
22024;SDS011;11176;51.448;6.650;2022-12-18T04:25:12;28.50;;;13.18;;
22024;SDS011;11176;51.448;6.650;2022-12-18T04:27:48;26.67;;;14.15;;
22024;SDS011;11176;51.448;6.650;2022-12-18T04:30:15;25.00;;;12.00;;
22024;SDS011;11176;51.448;6.650;2022-12-18T04:32:42;23.30;;;12.15;;
22024;SDS011;11176;51.448;6.650;2022-12-18T04:35:14;18.17;;;10.43;;
22024;SDS011;11176;51.448;6.650;2022-12-18T04:37:42;19.42;;;10.00;;
22024;SDS011;11176;51.448;6.650;2022-12-18T04:40:09;16.90;;;9.48;;
22024;SDS011;11176;51.448;6.650;2022-12-18T04:42:40;16.63;;;9.82;;
22024;SDS011;11176;51.448;6.650;2022-12-18T04:45:07;14.07;;;8.48;;
22024;SDS011;11176;51.448;6.650;2022-12-18T04:47:34;14.07;;;8.30;;
22024;SDS011;11176;51.448;6.650;2022-12-18T04:50:01;14.98;;;8.23;;
22024;SDS011;11176;51.448;6.650;2022-12-18T04:52:28;12.43;;;8.05;;
22024;SDS011;11176;51.448;6.650;2022-12-18T04:54:57;11.73;;;7.97;;
22024;SDS011;11176;51.448;6.650;2022-12-18T04:57:23;16.75;;;8.38;;
22024;SDS011;11176;51.448;6.650;2022-12-18T04:59:50;15.05;;;8.20;;
22024;SDS011;11176;51.448;6.650;2022-12-18T05:02:16;13.57;;;7.97;;
22024;SDS011;11176;51.448;6.650;2022-12-18T05:04:43;13.55;;;8.00;;
22024;SDS011;11176;51.448;6.650;2022-12-18T05:07:09;12.50;;;8.10;;
22024;SDS011;11176;51.448;6.650;2022-12-18T05:09:35;15.15;;;7.68;;
22024;SDS011;11176;51.448;6.650;2022-12-18T05:12:02;16.23;;;8.73;;
22024;SDS011;11176;51.448;6.650;2022-12-18T05:14:28;12.70;;;8.43;;
22024;SDS011;11176;51.448;6.650;2022-12-18T05:16:55;14.13;;;8.90;;
22024;SDS011;11176;51.448;6.650;2022-12-18T05:19:26;13.02;;;8.07;;
22024;SDS011;11176;51.448;6.650;2022-12-18T05:21:52;15.32;;;9.02;;
22024;SDS011;11176;51.448;6.650;2022-12-18T05:24:19;16.85;;;8.98;;
22024;SDS011;11176;51.448;6.650;2022-12-18T05:26:45;14.63;;;9.07;;
22024;SDS011;11176;51.448;6.650;2022-12-18T05:29:12;16.33;;;9.20;;
22024;SDS011;11176;51.448;6.650;2022-12-18T05:31:40;14.27;;;9.40;;
22024;SDS011;11176;51.448;6.650;2022-12-18T05:34:08;21.45;;;10.15;;
22024;SDS011;11176;51.448;6.650;2022-12-18T05:36:35;17.33;;;10.32;;
22024;SDS011;11176;51.448;6.650;2022-12-18T05:39:02;17.05;;;9.55;;
22024;SDS011;11176;51.448;6.650;2022-12-18T05:41:31;17.20;;;9.32;;
22024;SDS011;11176;51.448;6.650;2022-12-18T05:43:57;15.20;;;8.70;;
22024;SDS011;11176;51.448;6.650;2022-12-18T05:46:24;13.20;;;7.72;;
22024;SDS011;11176;51.448;6.650;2022-12-18T05:48:51;14.95;;;8.00;;
22024;SDS011;11176;51.448;6.650;2022-12-18T05:51:18;14.68;;;8.30;;
22024;SDS011;11176;51.448;6.650;2022-12-18T05:53:46;13.80;;;7.88;;
22024;SDS011;11176;51.448;6.650;2022-12-18T05:56:15;13.73;;;7.85;;
22024;SDS011;11176;51.448;6.650;2022-12-18T05:58:44;13.48;;;8.73;;
22024;SDS011;11176;51.448;6.650;2022-12-18T06:01:13;16.80;;;8.43;;
22024;SDS011;11176;51.448;6.650;2022-12-18T06:03:47;15.85;;;9.32;;
22024;SDS011;11176;51.448;6.650;2022-12-18T06:06:14;16.42;;;8.45;;
22024;SDS011;11176;51.448;6.650;2022-12-18T06:08:42;13.45;;;8.15;;
22024;SDS011;11176;51.448;6.650;2022-12-18T06:11:12;14.95;;;8.07;;
22024;SDS011;11176;51.448;6.650;2022-12-18T06:13:39;11.30;;;7.32;;
22024;SDS011;11176;51.448;6.650;2022-12-18T06:16:06;12.07;;;7.40;;
22024;SDS011;11176;51.448;6.650;2022-12-18T06:18:34;13.95;;;7.07;;
22024;SDS011;11176;51.448;6.650;2022-12-18T06:21:03;11.45;;;7.70;;
22024;SDS011;11176;51.448;6.650;2022-12-18T06:23:30;12.82;;;7.10;;
22024;SDS011;11176;51.448;6.650;2022-12-18T06:25:56;12.23;;;7.95;;
22024;SDS011;11176;51.448;6.650;2022-12-18T06:28:22;13.63;;;8.70;;
22024;SDS011;11176;51.448;6.650;2022-12-18T06:30:49;14.65;;;8.20;;
22024;SDS011;11176;51.448;6.650;2022-12-18T06:33:16;12.85;;;8.48;;
22024;SDS011;11176;51.448;6.650;2022-12-18T06:35:43;12.95;;;7.97;;
22024;SDS011;11176;51.448;6.650;2022-12-18T06:38:09;16.35;;;8.23;;
22024;SDS011;11176;51.448;6.650;2022-12-18T06:40:37;12.90;;;8.40;;
22024;SDS011;11176;51.448;6.650;2022-12-18T06:43:05;14.75;;;7.68;;
22024;SDS011;11176;51.448;6.650;2022-12-18T06:45:32;14.70;;;8.38;;
22024;SDS011;11176;51.448;6.650;2022-12-18T06:47:58;12.95;;;8.35;;
22024;SDS011;11176;51.448;6.650;2022-12-18T06:50:25;16.02;;;8.90;;
22024;SDS011;11176;51.448;6.650;2022-12-18T06:52:52;14.95;;;8.63;;
22024;SDS011;11176;51.448;6.650;2022-12-18T06:55:18;17.90;;;9.70;;
22024;SDS011;11176;51.448;6.650;2022-12-18T06:57:45;12.25;;;8.38;;
22024;SDS011;11176;51.448;6.650;2022-12-18T07:00:11;17.02;;;8.80;;
22024;SDS011;11176;51.448;6.650;2022-12-18T07:02:38;12.25;;;7.60;;
22024;SDS011;11176;51.448;6.650;2022-12-18T07:05:05;12.25;;;7.70;;
22024;SDS011;11176;51.448;6.650;2022-12-18T07:07:36;12.65;;;8.10;;
22024;SDS011;11176;51.448;6.650;2022-12-18T07:10:03;12.00;;;7.18;;
22024;SDS011;11176;51.448;6.650;2022-12-18T07:12:30;13.15;;;7.65;;
22024;SDS011;11176;51.448;6.650;2022-12-18T07:14:56;13.30;;;8.15;;
22024;SDS011;11176;51.448;6.650;2022-12-18T07:17:23;16.42;;;8.40;;
22024;SDS011;11176;51.448;6.650;2022-12-18T07:19:49;16.35;;;9.18;;
22024;SDS011;11176;51.448;6.650;2022-12-18T07:22:16;13.18;;;8.07;;
22024;SDS011;11176;51.448;6.650;2022-12-18T07:24:43;13.57;;;8.10;;
22024;SDS011;11176;51.448;6.650;2022-12-18T07:27:09;12.60;;;7.57;;
22024;SDS011;11176;51.448;6.650;2022-12-18T07:29:35;12.80;;;7.97;;
22024;SDS011;11176;51.448;6.650;2022-12-18T07:32:03;11.68;;;7.70;;
22024;SDS011;11176;51.448;6.650;2022-12-18T07:34:29;13.95;;;7.57;;
22024;SDS011;11176;51.448;6.650;2022-12-18T07:36:56;12.68;;;7.85;;
22024;SDS011;11176;51.448;6.650;2022-12-18T07:39:22;14.00;;;8.45;;
22024;SDS011;11176;51.448;6.650;2022-12-18T07:41:49;15.18;;;8.30;;
22024;SDS011;11176;51.448;6.650;2022-12-18T07:44:38;13.82;;;8.32;;
22024;SDS011;11176;51.448;6.650;2022-12-18T07:47:05;14.27;;;9.10;;
22024;SDS011;11176;51.448;6.650;2022-12-18T07:49:37;18.05;;;9.63;;
22024;SDS011;11176;51.448;6.650;2022-12-18T07:52:03;19.48;;;9.98;;
22024;SDS011;11176;51.448;6.650;2022-12-18T07:54:30;21.00;;;10.60;;
22024;SDS011;11176;51.448;6.650;2022-12-18T07:56:56;18.08;;;9.95;;
22024;SDS011;11176;51.448;6.650;2022-12-18T07:59:23;17.80;;;10.85;;
22024;SDS011;11176;51.448;6.650;2022-12-18T08:01:49;23.00;;;10.80;;
22024;SDS011;11176;51.448;6.650;2022-12-18T08:04:16;19.75;;;11.10;;
22024;SDS011;11176;51.448;6.650;2022-12-18T08:06:43;22.00;;;11.82;;
22024;SDS011;11176;51.448;6.650;2022-12-18T08:09:13;20.02;;;11.88;;
22024;SDS011;11176;51.448;6.650;2022-12-18T08:11:40;21.80;;;12.20;;
22024;SDS011;11176;51.448;6.650;2022-12-18T08:14:06;22.13;;;12.00;;
22024;SDS011;11176;51.448;6.650;2022-12-18T08:16:33;18.92;;;11.32;;
22024;SDS011;11176;51.448;6.650;2022-12-18T08:18:59;34.80;;;22.33;;
22024;SDS011;11176;51.448;6.650;2022-12-18T08:21:27;21.38;;;11.75;;
22024;SDS011;11176;51.448;6.650;2022-12-18T08:23:56;18.27;;;12.20;;
22024;SDS011;11176;51.448;6.650;2022-12-18T08:26:25;17.20;;;11.95;;
22024;SDS011;11176;51.448;6.650;2022-12-18T08:28:53;14.50;;;9.40;;
22024;SDS011;11176;51.448;6.650;2022-12-18T08:31:20;19.73;;;14.82;;
22024;SDS011;11176;51.448;6.650;2022-12-18T08:33:50;88.85;;;60.42;;
22024;SDS011;11176;51.448;6.650;2022-12-18T08:36:19;141.05;;;89.90;;
22024;SDS011;11176;51.448;6.650;2022-12-18T08:38:46;31.23;;;24.30;;
22024;SDS011;11176;51.448;6.650;2022-12-18T08:41:13;13.98;;;9.50;;
22024;SDS011;11176;51.448;6.650;2022-12-18T08:43:41;18.38;;;9.60;;
22024;SDS011;11176;51.448;6.650;2022-12-18T08:46:27;12.30;;;8.25;;
22024;SDS011;11176;51.448;6.650;2022-12-18T08:48:59;18.67;;;12.57;;
22024;SDS011;11176;51.448;6.650;2022-12-18T08:51:26;15.02;;;9.07;;
22024;SDS011;11176;51.448;6.650;2022-12-18T08:53:52;24.17;;;17.10;;
22024;SDS011;11176;51.448;6.650;2022-12-18T08:56:19;17.80;;;10.35;;
22024;SDS011;11176;51.448;6.650;2022-12-18T08:58:45;16.55;;;9.05;;
22024;SDS011;11176;51.448;6.650;2022-12-18T09:01:12;15.73;;;9.52;;
22024;SDS011;11176;51.448;6.650;2022-12-18T09:03:39;14.43;;;9.20;;
22024;SDS011;11176;51.448;6.650;2022-12-18T09:06:07;18.67;;;9.57;;
22024;SDS011;11176;51.448;6.650;2022-12-18T09:08:33;15.93;;;9.10;;
22024;SDS011;11176;51.448;6.650;2022-12-18T09:11:02;16.90;;;9.70;;
22024;SDS011;11176;51.448;6.650;2022-12-18T09:13:29;17.23;;;9.95;;
22024;SDS011;11176;51.448;6.650;2022-12-18T09:15:55;15.32;;;9.95;;
22024;SDS011;11176;51.448;6.650;2022-12-18T09:18:23;19.38;;;9.52;;
22024;SDS011;11176;51.448;6.650;2022-12-18T09:20:50;17.52;;;9.73;;
22024;SDS011;11176;51.448;6.650;2022-12-18T09:23:18;20.38;;;10.23;;
22024;SDS011;11176;51.448;6.650;2022-12-18T09:25:45;17.45;;;9.80;;
22024;SDS011;11176;51.448;6.650;2022-12-18T09:28:12;18.38;;;9.82;;
22024;SDS011;11176;51.448;6.650;2022-12-18T09:30:42;24.75;;;11.95;;
22024;SDS011;11176;51.448;6.650;2022-12-18T09:33:13;23.15;;;11.57;;
22024;SDS011;11176;51.448;6.650;2022-12-18T09:35:40;26.88;;;13.20;;
22024;SDS011;11176;51.448;6.650;2022-12-18T09:38:11;27.70;;;13.82;;
22024;SDS011;11176;51.448;6.650;2022-12-18T09:40:44;26.13;;;12.20;;
22024;SDS011;11176;51.448;6.650;2022-12-18T09:43:15;19.10;;;10.70;;
22024;SDS011;11176;51.448;6.650;2022-12-18T09:45:46;18.15;;;10.73;;
22024;SDS011;11176;51.448;6.650;2022-12-18T09:48:23;17.63;;;10.20;;
22024;SDS011;11176;51.448;6.650;2022-12-18T09:50:56;19.02;;;10.75;;
22024;SDS011;11176;51.448;6.650;2022-12-18T09:53:30;15.35;;;9.45;;
22024;SDS011;11176;51.448;6.650;2022-12-18T09:56:00;16.08;;;9.50;;
22024;SDS011;11176;51.448;6.650;2022-12-18T09:58:35;15.00;;;9.18;;
22024;SDS011;11176;51.448;6.650;2022-12-18T10:01:10;15.43;;;9.05;;
22024;SDS011;11176;51.448;6.650;2022-12-18T10:03:43;14.23;;;8.80;;
22024;SDS011;11176;51.448;6.650;2022-12-18T10:06:14;15.95;;;9.77;;
22024;SDS011;11176;51.448;6.650;2022-12-18T10:09:01;21.38;;;10.70;;
22024;SDS011;11176;51.448;6.650;2022-12-18T10:14:46;20.33;;;9.90;;
22024;SDS011;11176;51.448;6.650;2022-12-18T10:28:29;16.88;;;9.68;;
22024;SDS011;11176;51.448;6.650;2022-12-18T10:30:57;16.40;;;9.98;;
22024;SDS011;11176;51.448;6.650;2022-12-18T10:33:28;14.30;;;9.23;;
22024;SDS011;11176;51.448;6.650;2022-12-18T10:35:55;19.20;;;9.18;;
22024;SDS011;11176;51.448;6.650;2022-12-18T10:40:56;13.65;;;8.77;;
22024;SDS011;11176;51.448;6.650;2022-12-18T10:46:03;18.25;;;9.85;;
22024;SDS011;11176;51.448;6.650;2022-12-18T10:48:47;14.32;;;8.70;;
22024;SDS011;11176;51.448;6.650;2022-12-18T10:51:22;13.93;;;8.25;;
22024;SDS011;11176;51.448;6.650;2022-12-18T10:53:51;16.30;;;9.05;;
22024;SDS011;11176;51.448;6.650;2022-12-18T10:56:32;17.80;;;8.77;;
22024;SDS011;11176;51.448;6.650;2022-12-18T10:59:02;15.13;;;8.85;;
22024;SDS011;11176;51.448;6.650;2022-12-18T11:01:52;18.00;;;8.83;;
22024;SDS011;11176;51.448;6.650;2022-12-18T11:04:28;19.40;;;8.93;;
22024;SDS011;11176;51.448;6.650;2022-12-18T11:06:57;15.27;;;9.43;;
22024;SDS011;11176;51.448;6.650;2022-12-18T11:09:29;15.50;;;9.50;;
22024;SDS011;11176;51.448;6.650;2022-12-18T11:11:58;17.23;;;9.65;;
22024;SDS011;11176;51.448;6.650;2022-12-18T11:17:27;18.38;;;11.07;;
22024;SDS011;11176;51.448;6.650;2022-12-18T11:20:00;21.17;;;10.20;;
22024;SDS011;11176;51.448;6.650;2022-12-18T11:22:29;19.77;;;10.55;;
22024;SDS011;11176;51.448;6.650;2022-12-18T11:24:58;18.15;;;10.48;;
22024;SDS011;11176;51.448;6.650;2022-12-18T11:27:48;21.33;;;9.82;;
22024;SDS011;11176;51.448;6.650;2022-12-18T11:32:53;18.83;;;11.73;;
22024;SDS011;11176;51.448;6.650;2022-12-18T11:35:30;18.58;;;11.02;;
22024;SDS011;11176;51.448;6.650;2022-12-18T11:38:14;16.05;;;9.45;;
22024;SDS011;11176;51.448;6.650;2022-12-18T11:40:48;17.90;;;9.57;;
22024;SDS011;11176;51.448;6.650;2022-12-18T11:44:05;19.25;;;10.68;;
22024;SDS011;11176;51.448;6.650;2022-12-18T11:49:15;20.75;;;10.32;;
22024;SDS011;11176;51.448;6.650;2022-12-18T11:51:51;18.70;;;10.65;;
22024;SDS011;11176;51.448;6.650;2022-12-18T11:54:24;17.65;;;10.30;;
22024;SDS011;11176;51.448;6.650;2022-12-18T11:56:51;19.45;;;10.07;;
22024;SDS011;11176;51.448;6.650;2022-12-18T11:59:32;22.43;;;10.57;;
22024;SDS011;11176;51.448;6.650;2022-12-18T12:07:27;20.00;;;11.07;;
22024;SDS011;11176;51.448;6.650;2022-12-18T12:13:15;17.58;;;10.93;;
22024;SDS011;11176;51.448;6.650;2022-12-18T12:16:03;20.60;;;10.18;;
22024;SDS011;11176;51.448;6.650;2022-12-18T12:21:46;22.35;;;12.35;;
22024;SDS011;11176;51.448;6.650;2022-12-18T12:27:23;19.08;;;10.63;;
22024;SDS011;11176;51.448;6.650;2022-12-18T12:38:13;25.25;;;12.02;;
22024;SDS011;11176;51.448;6.650;2022-12-18T12:41:06;22.23;;;11.90;;
22024;SDS011;11176;51.448;6.650;2022-12-18T12:43:52;21.20;;;12.50;;
22024;SDS011;11176;51.448;6.650;2022-12-18T12:46:23;23.75;;;12.05;;
22024;SDS011;11176;51.448;6.650;2022-12-18T12:48:55;20.27;;;11.70;;
22024;SDS011;11176;51.448;6.650;2022-12-18T12:51:33;25.05;;;11.85;;
22024;SDS011;11176;51.448;6.650;2022-12-18T12:54:04;23.10;;;11.63;;
22024;SDS011;11176;51.448;6.650;2022-12-18T12:56:50;22.48;;;11.18;;
22024;SDS011;11176;51.448;6.650;2022-12-18T13:04:54;23.52;;;11.73;;
22024;SDS011;11176;51.448;6.650;2022-12-18T13:07:37;23.13;;;13.05;;
22024;SDS011;11176;51.448;6.650;2022-12-18T13:12:50;29.05;;;13.40;;
22024;SDS011;11176;51.448;6.650;2022-12-18T13:15:40;24.02;;;13.80;;
22024;SDS011;11176;51.448;6.650;2022-12-18T13:30:59;20.92;;;12.30;;
22024;SDS011;11176;51.448;6.650;2022-12-18T13:33:36;22.40;;;11.77;;
22024;SDS011;11176;51.448;6.650;2022-12-18T13:41:36;18.38;;;12.15;;
22024;SDS011;11176;51.448;6.650;2022-12-18T13:44:13;19.83;;;12.57;;
22024;SDS011;11176;51.448;6.650;2022-12-18T13:46:48;27.80;;;13.02;;
22024;SDS011;11176;51.448;6.650;2022-12-18T13:51:53;18.45;;;11.82;;
22024;SDS011;11176;51.448;6.650;2022-12-18T13:56:55;19.00;;;12.23;;
22024;SDS011;11176;51.448;6.650;2022-12-18T13:59:26;18.98;;;11.75;;
22024;SDS011;11176;51.448;6.650;2022-12-18T14:01:59;22.50;;;13.25;;
22024;SDS011;11176;51.448;6.650;2022-12-18T14:07:13;20.50;;;12.18;;
22024;SDS011;11176;51.448;6.650;2022-12-18T14:09:53;20.85;;;13.20;;
22024;SDS011;11176;51.448;6.650;2022-12-18T14:12:49;24.70;;;14.48;;
22024;SDS011;11176;51.448;6.650;2022-12-18T14:17:55;27.85;;;15.60;;
22024;SDS011;11176;51.448;6.650;2022-12-18T14:20:25;24.88;;;15.52;;
22024;SDS011;11176;51.448;6.650;2022-12-18T14:22:55;25.73;;;14.82;;
22024;SDS011;11176;51.448;6.650;2022-12-18T14:25:24;25.85;;;15.75;;
22024;SDS011;11176;51.448;6.650;2022-12-18T14:27:53;28.70;;;16.23;;
22024;SDS011;11176;51.448;6.650;2022-12-18T14:30:30;27.23;;;15.43;;
22024;SDS011;11176;51.448;6.650;2022-12-18T14:33:05;28.65;;;15.05;;
22024;SDS011;11176;51.448;6.650;2022-12-18T14:35:37;25.75;;;15.82;;
22024;SDS011;11176;51.448;6.650;2022-12-18T14:38:39;25.17;;;14.77;;
22024;SDS011;11176;51.448;6.650;2022-12-18T14:41:05;23.38;;;15.85;;
22024;SDS011;11176;51.448;6.650;2022-12-18T14:43:36;22.00;;;13.70;;
22024;SDS011;11176;51.448;6.650;2022-12-18T14:46:05;16.20;;;9.43;;
22024;SDS011;11176;51.448;6.650;2022-12-18T14:48:52;15.20;;;9.68;;
22024;SDS011;11176;51.448;6.650;2022-12-18T14:51:23;26.88;;;16.63;;
22024;SDS011;11176;51.448;6.650;2022-12-18T14:53:53;27.80;;;18.67;;
22024;SDS011;11176;51.448;6.650;2022-12-18T14:58:55;27.25;;;15.65;;
22024;SDS011;11176;51.448;6.650;2022-12-18T15:01:28;33.80;;;20.27;;
22024;SDS011;11176;51.448;6.650;2022-12-18T15:04:00;29.95;;;19.10;;
22024;SDS011;11176;51.448;6.650;2022-12-18T15:06:33;28.60;;;17.30;;
22024;SDS011;11176;51.448;6.650;2022-12-18T15:12:04;35.33;;;18.23;;
22024;SDS011;11176;51.448;6.650;2022-12-18T15:14:34;35.03;;;21.13;;
22024;SDS011;11176;51.448;6.650;2022-12-18T15:17:17;27.52;;;16.92;;
22024;SDS011;11176;51.448;6.650;2022-12-18T15:19:48;26.45;;;16.27;;
22024;SDS011;11176;51.448;6.650;2022-12-18T15:22:26;31.20;;;17.35;;
22024;SDS011;11176;51.448;6.650;2022-12-18T15:24:55;27.40;;;16.95;;
22024;SDS011;11176;51.448;6.650;2022-12-18T15:27:27;29.58;;;17.42;;
22024;SDS011;11176;51.448;6.650;2022-12-18T15:29:59;33.22;;;19.35;;
22024;SDS011;11176;51.448;6.650;2022-12-18T15:32:38;30.67;;;18.73;;
22024;SDS011;11176;51.448;6.650;2022-12-18T15:37:37;30.08;;;17.55;;
22024;SDS011;11176;51.448;6.650;2022-12-18T15:40:05;35.13;;;19.13;;
22024;SDS011;11176;51.448;6.650;2022-12-18T15:42:32;34.92;;;19.13;;
22024;SDS011;11176;51.448;6.650;2022-12-18T15:45:17;31.50;;;17.25;;
22024;SDS011;11176;51.448;6.650;2022-12-18T15:47:45;26.58;;;16.80;;
22024;SDS011;11176;51.448;6.650;2022-12-18T15:50:11;29.02;;;17.58;;
22024;SDS011;11176;51.448;6.650;2022-12-18T15:52:42;28.58;;;17.67;;
22024;SDS011;11176;51.448;6.650;2022-12-18T15:55:13;34.95;;;19.98;;
22024;SDS011;11176;51.448;6.650;2022-12-18T15:58:01;25.73;;;15.80;;
22024;SDS011;11176;51.448;6.650;2022-12-18T16:00:28;27.23;;;17.08;;
22024;SDS011;11176;51.448;6.650;2022-12-18T16:02:54;27.55;;;17.42;;
22024;SDS011;11176;51.448;6.650;2022-12-18T16:05:21;27.45;;;17.20;;
22024;SDS011;11176;51.448;6.650;2022-12-18T16:07:49;28.98;;;17.38;;
22024;SDS011;11176;51.448;6.650;2022-12-18T16:10:16;30.00;;;16.90;;
22024;SDS011;11176;51.448;6.650;2022-12-18T16:12:42;27.20;;;16.13;;
22024;SDS011;11176;51.448;6.650;2022-12-18T16:15:10;25.92;;;16.40;;
22024;SDS011;11176;51.448;6.650;2022-12-18T16:17:39;27.85;;;16.88;;
22024;SDS011;11176;51.448;6.650;2022-12-18T16:20:08;28.50;;;17.73;;
22024;SDS011;11176;51.448;6.650;2022-12-18T16:22:38;27.40;;;16.50;;
22024;SDS011;11176;51.448;6.650;2022-12-18T16:25:05;24.83;;;16.15;;
22024;SDS011;11176;51.448;6.650;2022-12-18T16:27:32;29.20;;;17.40;;
22024;SDS011;11176;51.448;6.650;2022-12-18T16:29:58;32.92;;;20.50;;
22024;SDS011;11176;51.448;6.650;2022-12-18T16:32:25;34.47;;;20.25;;
22024;SDS011;11176;51.448;6.650;2022-12-18T16:34:51;27.17;;;17.35;;
22024;SDS011;11176;51.448;6.650;2022-12-18T16:37:18;31.50;;;19.55;;
22024;SDS011;11176;51.448;6.650;2022-12-18T16:39:44;27.23;;;18.02;;
22024;SDS011;11176;51.448;6.650;2022-12-18T16:42:18;32.47;;;18.85;;
22024;SDS011;11176;51.448;6.650;2022-12-18T16:44:46;27.48;;;18.30;;
22024;SDS011;11176;51.448;6.650;2022-12-18T16:47:14;44.20;;;27.25;;
22024;SDS011;11176;51.448;6.650;2022-12-18T16:49:41;39.47;;;23.77;;
22024;SDS011;11176;51.448;6.650;2022-12-18T16:52:11;32.65;;;19.70;;
22024;SDS011;11176;51.448;6.650;2022-12-18T16:54:38;30.13;;;18.88;;